Latest Weather Observations for Narrabri

IDN60801

Issued at 3:22 pm EST Thursday 28 May 2020 (issued every 10 minutes, with the page automatically refreshed every 10 minutes)

About weather observations | Map of weather stations | Latest weather observations for NSW | Other Formats
Station Details ID: 054038 Name: NARRABRI AIRPORT AWS Lat: -30.32 Lon: 149.83 Height: 229.02 m
Data from the previous 72 hours. | See also: Recent months at Narrabri
Date/Time
EST
Temp
°C
App
Temp
°C
Dew
Point
°C
Rel
Hum
%
Delta-T
°C
Wind Press
QNH
hPa
Press
MSL
hPa
Rain since
9am
mm
Dir  Spd
km/h
Gust
km/h
Spd
kts
Gust
kts
28/03:00pm 19.8 16.4 5.8 40 7.0 SW 13 19 7 10 1019.7 1019.5 0.0
28/02:30pm 20.7 17.8 6.3 39 7.3 WSW 11 17 6 9 1019.8 1019.6 0.0
28/02:00pm 21.3 18.7 7.9 42 7.0 WSW 11 19 6 10 1019.9 1019.7 0.0
28/01:30pm 19.7 17.3 6.8 43 6.6 WSW 9 17 5 9 1020.1 1019.9 0.0
28/01:00pm 20.5 17.1 6.1 39 7.3 SW 13 20 7 11 1020.3 1020.1 0.0
28/12:30pm 21.4 18.9 8.3 43 6.9 SW 11 17 6 9 1020.7 1020.5 0.0
28/12:00pm 21.1 18.2 8.0 43 6.9 WSW 13 20 7 11 1021.1 1020.8 0.0
28/11:30am 20.2 18.0 9.5 50 5.8 SW 11 15 6 8 1021.7 1021.4 0.0
28/11:00am 19.2 17.5 9.7 54 5.1 WSW 9 17 5 9 1022.0 1021.8 0.0
28/10:30am 18.4 17.8 10.3 59 4.4 SSW 4 7 2 4 1022.4 1022.2 0.0
28/10:00am 17.1 16.2 10.7 66 3.4 SW 6 9 3 5 1022.8 1022.6 0.0
28/09:30am 15.6 15.2 11.0 74 2.5 SSW 4 7 2 4 1022.8 1022.6 0.0
28/09:00am 13.9 12.9 11.1 83 1.5 S 7 9 4 5 1022.7 1022.5 0.0
28/08:30am 12.3 11.3 10.9 91 0.7 SW 7 9 4 5 1022.5 1022.3 0.0
28/08:00am 9.7 9.3 8.3 91 0.7 CALM 0 0 0 0 1022.0 1021.8 0.0
28/07:30am 8.2 7.5 6.8 91 0.7 CALM 0 0 0 0 1021.8 1021.5 0.0
28/07:03am 6.4 5.3 4.9 90 0.7 CALM 0 0 0 0 1021.6 1021.3 0.0
28/07:00am 6.3 5.1 4.8 90 0.7 CALM 0 0 0 0 1021.5 1021.2 0.0
28/06:43am 6.3 5.1 4.8 90 0.7 CALM 0 0 0 0 1021.3 1021.0 0.0
28/06:30am 6.7 5.6 5.2 90 0.7 CALM 0 2 0 1 1021.3 1021.0 0.0
28/06:00am 6.8 5.7 5.3 90 0.7 CALM 0 0 0 0 1021.0 1020.7 0.0
28/05:30am 7.1 4.4 5.6 90 0.7 ENE 9 9 5 5 1020.4 1020.2 0.0
28/05:00am 8.1 5.6 6.7 91 0.7 ENE 9 11 5 6 1020.1 1019.9 0.0
28/04:30am 8.1 5.6 6.7 91 0.7 E 9 11 5 6 1019.9 1019.7 0.0
28/04:00am 7.2 6.2 5.7 90 0.7 CALM 0 0 0 0 1020.0 1019.8 0.0
28/03:30am 7.3 6.3 5.6 89 0.8 CALM 0 6 0 3 1019.9 1019.7 0.0
28/03:00am 7.9 7.0 6.0 88 0.9 CALM 0 0 0 0 1020.0 1019.8 0.0
28/02:30am 9.3 8.1 7.9 91 0.7 ESE 4 11 2 6 1019.9 1019.7 0.0
28/02:00am 8.4 7.3 6.7 89 0.8 SSE 2 6 1 3 1019.8 1019.6 0.0
28/01:30am 8.8 6.8 6.9 88 0.9 S 7 9 4 5 1019.8 1019.6 0.0
28/01:00am 9.0 6.3 7.3 89 0.8 ENE 11 15 6 8 1020.0 1019.8 0.0
28/12:30am 9.1 8.5 7.2 88 0.9 CALM 0 6 0 3 1019.9 1019.7 0.0
28/12:00am 9.2 8.5 6.8 85 1.1 CALM 0 0 0 0 1020.0 1019.8 0.0
 
Date/Time
EST
Temp
°C
App
Temp
°C
Dew
Point
°C
Rel
Hum
%
Delta-T
°C
Wind Press
QNH
hPa
Press
MSL
hPa
Rain since
9am
mm
Dir  Spd
km/h
Gust
km/h
Spd
kts
Gust
kts
27/11:30pm 10.4 8.8 8.0 85 1.2 ESE 6 9 3 5 1020.1 1019.9 0.0
27/11:00pm 10.9 9.3 8.7 86 1.1 ENE 7 11 4 6 1020.2 1020.0 0.0
27/10:30pm 10.7 9.0 8.3 85 1.2 S 7 9 4 5 1020.2 1020.0 0.0
27/10:00pm 12.1 11.5 9.1 82 1.5 ESE 2 9 1 5 1019.9 1019.7 0.0
27/09:30pm 11.8 11.1 8.6 81 1.6 ESE 2 6 1 3 1020.1 1019.9 0.0
27/09:00pm 12.3 10.4 9.0 80 1.7 SE 9 13 5 7 1020.2 1020.0 0.0
27/08:30pm 12.7 11.2 9.0 78 1.9 ESE 7 13 4 7 1020.0 1019.8 0.0
27/08:00pm 12.6 9.7 9.6 82 1.5 E 15 15 8 8 1019.9 1019.7 0.0
27/07:30pm 12.5 10.2 9.1 80 1.7 E 11 13 6 7 1019.8 1019.6 0.0
27/07:00pm 13.2 12.6 9.1 76 2.1 SE 2 7 1 4 1019.6 1019.4 0.0
27/06:30pm 13.9 13.7 8.9 72 2.6 CALM 0 0 0 0 1019.5 1019.3 0.0
27/06:00pm 14.9 14.8 9.3 69 2.9 CALM 0 0 0 0 1019.3 1019.1 0.0
27/05:30pm 16.3 16.1 9.0 62 3.8 CALM 0 6 0 3 1019.2 1019.0 0.0
27/05:00pm 19.0 17.1 9.2 53 5.2 SW 9 9 5 5 1019.0 1018.8 0.0
27/04:30pm 20.8 18.9 9.1 47 6.3 W 9 11 5 6 1018.8 1018.6 0.0
27/04:00pm 22.2 19.8 8.7 42 7.2 SW 11 15 6 8 1018.5 1018.3 0.0
27/03:30pm 23.6 22.0 8.1 37 8.3 SW 6 9 3 5 1018.3 1018.1 0.0
27/03:00pm 22.6 21.0 8.0 39 7.7 WSW 6 11 3 6 1018.5 1018.3 0.0
27/02:30pm 22.8 21.2 7.8 38 7.9 E 6 11 3 6 1018.6 1018.4 0.0
27/02:00pm 22.9 20.7 9.3 42 7.4 SW 11 15 6 8 1018.6 1018.4 0.0
27/01:30pm 22.7 21.0 8.4 40 7.6 W 7 17 4 9 1019.2 1019.0 0.0
27/01:00pm 22.3 21.0 9.1 43 7.1 SW 6 15 3 8 1019.6 1019.4 0.0
27/12:30pm 21.6 20.0 8.8 44 6.9 SSW 7 13 4 7 1019.8 1019.6 0.0
27/12:00pm 21.8 21.5 10.0 47 6.4 SSE 2 9 1 5 1020.4 1020.2 0.0
27/11:30am 20.3 18.9 9.5 50 5.8 ESE 7 11 4 6 1020.7 1020.5 0.0
27/11:00am 19.4 17.3 9.9 54 5.1 SSE 11 17 6 9 1021.3 1021.0 0.0
27/10:30am 18.5 16.0 9.8 57 4.7 SSE 13 17 7 9 1021.6 1021.3 0.0
27/10:00am 17.1 14.5 9.3 60 4.1 SSE 13 19 7 10 1021.9 1021.6 0.0
27/09:30am 15.9 13.6 9.1 64 3.5 SE 11 15 6 8 1021.5 1021.2 0.0
27/09:00am 14.8 13.0 9.6 71 2.7 SSE 9 17 5 9 1021.1 1020.8 0.0
27/08:30am 12.8 10.9 8.9 77 2.0 SSE 9 15 5 8 1020.9 1020.6 0.0
27/08:00am 10.9 8.8 8.3 84 1.3 SSE 9 17 5 9 1020.5 1020.3 0.0
27/07:30am 10.8 9.6 8.0 83 1.4 SSE 4 9 2 5 1020.9 1020.6 0.0
27/07:00am 11.1 8.2 8.3 83 1.4 SE 13 22 7 12 1020.6 1020.4 0.0
27/06:30am 10.9 8.0 8.3 84 1.3 SE 13 20 7 11 1020.4 1020.2 0.0
27/06:00am 10.7 8.6 8.1 84 1.3 SSE 9 15 5 8 1020.4 1020.2 0.0
27/05:30am 10.4 8.6 8.0 85 1.2 SSE 7 11 4 6 1020.2 1020.0 0.0
27/05:00am 10.6 6.5 8.0 84 1.3 SE 19 28 10 15 1019.8 1019.6 0.0
27/04:30am 10.9 7.3 8.3 84 1.3 SE 17 30 9 16 1019.8 1019.6 0.0
27/04:00am 10.9 6.9 8.1 83 1.4 SSE 19 30 10 16 1020.3 1020.1 0.0
27/03:30am 11.1 7.1 8.1 82 1.5 SSE 19 26 10 14 1020.2 1020.0 0.0
27/03:00am 11.5 7.3 8.4 81 1.5 SSE 20 30 11 16 1020.3 1020.1 0.0
27/02:30am 11.4 7.2 8.4 82 1.5 SSE 20 28 11 15 1020.1 1019.9 0.0
27/02:00am 11.6 8.1 8.6 82 1.5 SSE 17 24 9 13 1020.5 1020.3 0.0
27/01:30am 12.1 8.0 8.8 80 1.7 SSE 20 30 11 16 1020.2 1020.0 0.0
27/01:00am 12.5 8.5 9.1 80 1.7 SSE 20 28 11 15 1020.6 1020.4 0.0
27/12:30am 12.6 8.8 9.2 80 1.7 SSE 19 26 10 14 1020.6 1020.4 0.0
27/12:00am 12.7 9.3 9.3 80 1.7 SSE 17 24 9 13 1020.7 1020.5 0.0
 
Date/Time
EST
Temp
°C
App
Temp
°C
Dew
Point
°C
Rel
Hum
%
Delta-T
°C
Wind Press
QNH
hPa
Press
MSL
hPa
Rain since
9am
mm
Dir  Spd
km/h
Gust
km/h
Spd
kts
Gust
kts
26/11:30pm 12.9 10.0 9.5 80 1.8 SSE 15 20 8 11 1021.0 1020.7 0.0
26/11:00pm 13.2 11.1 9.6 79 1.9 SSE 11 17 6 9 1021.2 1020.9 0.0
26/10:30pm 13.8 11.3 9.8 77 2.1 SE 13 20 7 11 1021.0 1020.7 0.0
26/10:00pm 14.1 11.7 9.9 76 2.2 SSE 13 22 7 12 1021.2 1020.9 0.0
26/09:30pm 14.5 12.1 9.9 74 2.4 SSE 13 24 7 13 1021.1 1020.8 0.0
26/09:00pm 14.8 12.4 10.2 74 2.4 SSE 13 19 7 10 1021.0 1020.7 0.0
26/08:30pm 15.0 12.3 10.2 73 2.5 SE 15 22 8 12 1020.7 1020.5 0.0
26/08:00pm 15.1 12.7 10.1 72 2.6 SE 13 28 7 15 1020.7 1020.5 0.0
26/07:30pm 14.3 12.2 9.9 75 2.3 SE 11 15 6 8 1020.4 1020.2 0.0
26/07:00pm 14.7 12.6 9.9 73 2.5 SE 11 17 6 9 1020.2 1020.0 0.0
26/06:30pm 15.1 13.1 10.1 72 2.6 SE 11 15 6 8 1020.0 1019.8 0.0
26/06:00pm 15.7 13.3 10.2 70 2.9 SE 13 19 7 10 1019.9 1019.7 0.0
26/05:30pm 15.7 13.9 9.6 67 3.2 SE 9 13 5 7 1019.7 1019.5 0.0
26/05:00pm 16.7 14.9 9.6 63 3.7 SSE 9 15 5 8 1019.5 1019.3 0.0
26/04:30pm 18.2 15.2 9.3 56 4.7 SSE 15 22 8 12 1019.3 1019.1 0.0
26/04:00pm 19.0 15.1 9.5 54 5.1 SSE 20 30 11 16 1019.1 1018.9 0.0
26/03:30pm 18.4 14.6 8.9 54 5.0 SSE 19 26 10 14 1018.5 1018.3 0.0
26/03:00pm 20.3 16.6 9.5 50 5.8 SE 19 30 10 16 1018.3 1018.1 0.0
26/02:30pm 20.3 16.5 9.8 51 5.7 SSE 20 33 11 18 1018.4 1018.2 0.0
26/02:00pm 20.1 16.4 9.4 50 5.7 SE 19 32 10 17 1018.6 1018.4 0.0
26/01:30pm 19.5 15.4 8.8 50 5.7 SE 20 32 11 17 1018.6 1018.4 0.0
26/01:00pm 20.0 16.3 10.1 53 5.4 SE 20 33 11 18 1018.9 1018.7 0.0
26/12:30pm 19.2 15.4 9.9 55 5.0 SE 20 30 11 16 1019.2 1019.0 0.0
26/12:00pm 19.1 15.7 10.4 57 4.7 SSE 19 30 10 16 1020.0 1019.8 0.0
26/11:30am 18.3 14.5 9.9 58 4.5 SSE 20 30 11 16 1020.7 1020.5 0.0
26/11:00am 17.7 14.1 9.8 60 4.2 SSE 19 33 10 18 1021.0 1020.7 0.0
26/10:30am 17.0 13.2 9.9 63 3.8 SE 20 28 11 15 1021.5 1021.2 0.0
26/10:00am 16.3 12.8 10.2 67 3.2 SSE 19 26 10 14 1021.6 1021.3 0.0
26/09:30am 15.9 12.5 10.4 70 2.9 SSE 19 28 10 15 1021.5 1021.2 0.0
26/09:00am 15.1 12.8 10.5 74 2.4 SSE 13 20 7 11 1021.4 1021.1 0.0
26/08:30am 13.0 11.1 10.4 84 1.4 S 11 15 6 8 1021.3 1021.0 0.0
26/08:00am 11.5 9.7 9.6 88 1.0 SSW 9 13 5 7 1021.1 1020.8 0.0
26/07:30am 10.3 7.9 8.7 90 0.8 S 11 13 6 7 1020.6 1020.4 0.0
26/07:00am 10.0 7.9 8.3 89 0.8 S 9 13 5 7 1020.3 1020.1 0.0
26/06:30am 10.0 7.5 8.1 88 0.9 SSE 11 13 6 7 1020.0 1019.8 0.0
26/06:00am 10.7 8.0 8.8 88 0.9 SSE 13 19 7 10 1019.8 1019.6 0.0
26/05:30am 10.9 9.0 9.0 88 1.0 SSE 9 13 5 7 1019.6 1019.4 0.0
26/05:00am 11.1 9.3 9.5 90 0.8 SSE 9 15 5 8 1019.4 1019.2 0.0
26/04:30am 10.3 7.9 8.7 90 0.8 S 11 13 6 7 1019.2 1019.0 0.0
26/04:00am 10.6 9.0 8.9 89 0.8 SSE 7 7 4 4 1019.4 1019.2 0.0
26/03:30am 11.3 10.1 9.6 89 0.9 S 6 7 3 4 1019.4 1019.2 0.0
26/03:00am 11.3 10.1 9.6 89 0.9 S 6 7 3 4 1019.4 1019.2 0.0
26/02:30am 11.3 10.1 9.6 89 0.9 S 6 7 3 4 1019.5 1019.3 0.0
26/02:00am 11.2 10.7 9.3 88 1.0 S 2 6 1 3 1019.6 1019.4 0.0
26/01:30am 11.2 9.9 9.3 88 1.0 SSW 6 7 3 4 1019.8 1019.6 0.0
26/01:00am 11.2 10.1 8.6 84 1.3 SSW 4 7 2 4 1019.8 1019.6 0.0
26/12:30am 12.3 11.0 9.1 81 1.6 SE 6 7 3 4 1019.9 1019.7 0.0
26/12:00am 12.8 11.0 9.4 80 1.7 SE 9 11 5 6 1020.0 1019.8 0.0
 
Date/Time
EST
Temp
°C
App
Temp
°C
Dew
Point
°C
Rel
Hum
%
Delta-T
°C
Wind Press
QNH
hPa
Press
MSL
hPa
Rain since
9am
mm
Dir  Spd
km/h
Gust
km/h
Spd
kts
Gust
kts
25/11:30pm 13.0 11.2 9.6 80 1.8 SE 9 13 5 7 1020.0 1019.8 0.0
25/11:00pm 12.9 10.8 9.7 81 1.6 SSE 11 15 6 8 1020.2 1020.0 0.0
25/10:30pm 12.7 10.1 9.3 80 1.7 SSE 13 17 7 9 1020.0 1019.8 0.0
25/10:00pm 12.7 10.1 9.2 79 1.8 SSE 13 19 7 10 1020.0 1019.8 0.0
25/09:30pm 13.5 10.9 9.2 75 2.2 SSE 13 19 7 10 1020.1 1019.9 0.0
25/09:00pm 14.1 11.4 8.9 71 2.7 SE 13 19 7 10 1019.9 1019.7 0.0
25/08:30pm 14.1 11.4 8.9 71 2.7 SSE 13 20 7 11 1019.8 1019.6 0.0
25/08:00pm 14.3 10.8 8.9 70 2.8 SSE 17 24 9 13 1019.7 1019.5 0.0
25/07:30pm 13.5 10.7 8.4 71 2.6 SE 13 17 7 9 1019.4 1019.2 0.0
25/07:00pm 12.8 10.2 7.7 71 2.5 SSE 11 13 6 7 1019.2 1019.0 0.0
25/06:30pm 12.7 10.1 7.6 71 2.5 SE 11 13 6 7 1018.8 1018.6 0.0
25/06:00pm 12.5 11.8 6.8 68 2.8 CALM 0 4 0 2 1018.5 1018.3 0.0
25/05:30pm 14.0 12.0 7.1 63 3.4 SSE 7 9 4 5 1018.1 1017.8 0.0
25/05:00pm 15.9 12.8 7.1 56 4.4 SE 13 17 7 9 1017.7 1017.4 0.0
25/04:30pm 16.9 13.7 7.0 52 5.0 SE 13 19 7 10 1017.7 1017.4 0.0
25/04:00pm 16.9 13.2 6.4 50 5.2 SE 15 22 8 12 1017.4 1017.1 0.0
25/03:30pm 18.7 15.1 6.9 46 6.0 SSE 15 20 8 11 1017.3 1017.0 0.0

Other formats

Comma delimited format used in spreadsheet applications
http://www.bom.gov.au/fwo/IDN60801/IDN60801.95734.axf

JavaScript Object Notation format (JSON) in row-major order
http://www.bom.gov.au/fwo/IDN60801/IDN60801.95734.json

Data quality

Most of these data are generated automatically and are frequently updated. Quality checks on data are not normally performed. It is possible for incorrect values to appear. Refer to information at About Latest Weather Observations and please check the disclaimer before using these data.